createdAt,value
2023-01-08T00:01:11.790Z,100721.75
2023-01-08T00:03:40.725Z,100718.19
2023-01-08T00:06:11.859Z,100720.75
2023-01-08T00:08:39.721Z,100718.19
2023-01-08T00:11:07.793Z,100703.13
2023-01-08T00:13:36.084Z,100697.66
2023-01-08T00:16:05.303Z,100702.88
2023-01-08T00:18:34.573Z,100712.84
2023-01-08T00:21:03.154Z,100698.50
2023-01-08T00:23:31.629Z,100704.81
2023-01-08T00:26:02.326Z,100700.09
2023-01-08T00:28:31.030Z,100690.72
2023-01-08T00:30:59.131Z,100682.00
2023-01-08T00:33:27.209Z,100683.19
2023-01-08T00:35:56.502Z,100685.63
2023-01-08T00:38:26.975Z,100675.28
2023-01-08T00:40:55.000Z,100676.63
2023-01-08T00:43:23.052Z,100673.69
2023-01-08T00:45:51.893Z,100666.28
2023-01-08T00:48:19.754Z,100667.66
2023-01-08T00:50:47.607Z,100660.56
2023-01-08T00:53:17.123Z,100660.72
2023-01-08T00:55:45.201Z,100661.78
2023-01-08T00:58:13.647Z,100647.56
2023-01-08T01:00:41.516Z,100661.28
2023-01-08T01:03:09.396Z,100654.25
2023-01-08T01:05:37.286Z,100652.91
2023-01-08T01:08:05.561Z,100645.44
2023-01-08T01:10:34.779Z,100651.69
2023-01-08T01:13:02.700Z,100646.72
2023-01-08T01:15:30.604Z,100650.88
2023-01-08T01:17:58.520Z,100653.22
2023-01-08T01:20:26.448Z,100647.44
2023-01-08T01:22:54.289Z,100652.50
2023-01-08T01:25:22.214Z,100656.41
2023-01-08T01:27:51.479Z,100651.09
2023-01-08T01:30:19.337Z,100647.19
2023-01-08T01:32:47.253Z,100639.13
2023-01-08T01:35:15.310Z,100638.16
2023-01-08T01:37:43.178Z,100630.69
2023-01-08T01:40:12.058Z,100638.16
2023-01-08T01:42:44.127Z,100641.81
2023-01-08T01:45:21.151Z,100648.31
2023-01-08T01:47:53.805Z,100642.81
2023-01-08T01:50:26.856Z,100644.03
2023-01-08T01:53:02.176Z,100627.72
2023-01-08T01:55:31.749Z,100609.25
2023-01-08T01:58:05.509Z,100610.72
2023-01-08T02:00:36.150Z,100611.22
2023-01-08T02:03:06.921Z,100624.28
2023-01-08T02:05:44.590Z,100615.00
2023-01-08T02:08:14.316Z,100610.34
2023-01-08T02:10:49.121Z,100611.69
2023-01-08T02:13:24.092Z,100603.66
2023-01-08T02:15:59.263Z,100603.56
2023-01-08T02:18:33.678Z,100612.34
2023-01-08T02:21:08.878Z,100603.78
2023-01-08T02:23:46.472Z,100591.81
2023-01-08T02:26:20.146Z,100578.53
2023-01-08T02:28:53.817Z,100578.56
2023-01-08T02:31:24.009Z,100573.47
2023-01-08T02:33:51.849Z,100575.91
2023-01-08T02:36:31.514Z,100575.03
2023-01-08T02:39:09.920Z,100577.31
2023-01-08T02:41:49.078Z,100577.56
2023-01-08T02:44:22.778Z,100568.91
2023-01-08T02:46:53.341Z,100560.13
2023-01-08T02:49:24.681Z,100563.38
2023-01-08T02:51:56.482Z,100546.41
2023-01-08T02:54:28.995Z,100555.03
2023-01-08T02:57:02.298Z,100559.94
2023-01-08T02:59:32.515Z,100546.88
2023-01-08T03:02:01.943Z,100538.16
2023-01-08T03:04:35.156Z,100536.34
2023-01-08T03:07:03.705Z,100533.16
2023-01-08T03:09:31.891Z,100529.09
2023-01-08T03:12:06.153Z,100528.78
2023-01-08T03:14:41.125Z,100529.22
2023-01-08T03:17:15.630Z,100537.00
2023-01-08T03:19:46.273Z,100533.47
2023-01-08T03:22:17.552Z,100539.13
2023-01-08T03:24:49.480Z,100536.25
2023-01-08T03:27:25.766Z,100522.38
2023-01-08T03:29:56.527Z,100518.25
2023-01-08T03:32:26.487Z,100526.22
2023-01-08T03:34:57.175Z,100521.94
2023-01-08T03:37:29.401Z,100520.19
2023-01-08T03:40:00.282Z,100512.44
2023-01-08T03:42:32.451Z,100515.16
2023-01-08T03:45:00.641Z,100510.63
2023-01-08T03:47:30.152Z,100513.44
2023-01-08T03:50:01.598Z,100511.56
2023-01-08T03:52:32.797Z,100517.41
2023-01-08T03:55:00.974Z,100518.56
2023-01-08T03:57:30.178Z,100520.75
2023-01-08T03:59:58.035Z,100532.91
2023-01-08T04:02:26.008Z,100532.13
2023-01-08T04:04:53.945Z,100525.00
2023-01-08T04:07:22.070Z,100517.53
2023-01-08T04:09:49.903Z,100524.63
2023-01-08T04:12:17.817Z,100525.81
2023-01-08T04:14:47.066Z,100522.97
2023-01-08T04:17:15.009Z,100512.81
2023-01-08T04:19:43.093Z,100516.78
2023-01-08T04:22:11.731Z,100517.22
2023-01-08T04:24:39.654Z,100523.13
2023-01-08T04:27:07.444Z,100524.69
2023-01-08T04:29:35.285Z,100510.19
2023-01-08T04:32:04.803Z,100511.19
2023-01-08T04:34:32.691Z,100502.94
2023-01-08T04:37:00.626Z,100494.94
2023-01-08T04:39:28.717Z,100487.06
2023-01-08T04:41:56.682Z,100482.81
2023-01-08T04:44:24.612Z,100481.06
2023-01-08T04:46:52.467Z,100485.34
2023-01-08T04:49:21.722Z,100480.75
2023-01-08T04:51:49.654Z,100485.13
2023-01-08T04:54:17.674Z,100487.25
2023-01-08T04:56:45.557Z,100487.63
2023-01-08T04:59:13.456Z,100480.25
2023-01-08T05:01:41.475Z,100483.63
2023-01-08T05:04:09.383Z,100483.34
2023-01-08T05:06:38.555Z,100480.09
2023-01-08T05:09:06.503Z,100475.31
2023-01-08T05:11:35.567Z,100470.63
2023-01-08T05:14:03.446Z,100482.72
2023-01-08T05:16:32.111Z,100474.84
2023-01-08T05:19:00.033Z,100469.00
2023-01-08T05:21:27.866Z,100469.84
2023-01-08T05:23:57.129Z,100463.31
2023-01-08T05:26:25.018Z,100460.41
2023-01-08T05:28:52.913Z,100455.78
2023-01-08T05:31:20.881Z,100460.75
2023-01-08T05:33:48.784Z,100445.94
2023-01-08T05:36:16.662Z,100449.09
2023-01-08T05:38:44.563Z,100447.78
2023-01-08T05:41:13.899Z,100448.75
2023-01-08T05:43:41.767Z,100446.59
2023-01-08T05:46:09.650Z,100442.31
2023-01-08T05:48:37.950Z,100446.69
2023-01-08T05:51:06.331Z,100439.78
2023-01-08T05:53:34.372Z,100430.16
2023-01-08T05:56:03.612Z,100433.47
2023-01-08T05:58:33.270Z,100431.75
2023-01-08T06:01:06.218Z,100427.66
2023-01-08T06:03:34.122Z,100425.22
2023-01-08T06:06:03.316Z,100416.25
2023-01-08T06:08:32.232Z,100418.91
2023-01-08T06:11:00.985Z,100419.34
2023-01-08T06:13:28.992Z,100427.16
2023-01-08T06:15:59.613Z,100419.25
2023-01-08T06:18:27.850Z,100414.50
2023-01-08T06:20:55.782Z,100404.56
2023-01-08T06:23:23.626Z,100398.72
2023-01-08T06:25:53.521Z,100403.63
2023-01-08T06:28:21.419Z,100410.25
2023-01-08T06:30:49.578Z,100403.84
2023-01-08T06:33:21.587Z,100404.28
2023-01-08T06:35:49.651Z,100406.25
2023-01-08T06:38:19.222Z,100395.59
2023-01-08T06:40:47.735Z,100407.53
2023-01-08T06:43:16.093Z,100401.63
2023-01-08T06:45:43.972Z,100402.53
2023-01-08T06:48:11.829Z,100400.84
2023-01-08T06:50:41.093Z,100397.28
2023-01-08T06:53:08.970Z,100396.63
2023-01-08T06:55:38.657Z,100399.81
2023-01-08T06:58:06.629Z,100405.53
2023-01-08T07:00:34.561Z,100400.72
2023-01-08T07:03:02.575Z,100408.47
2023-01-08T07:05:30.521Z,100402.25
2023-01-08T07:07:59.728Z,100397.41
2023-01-08T07:10:27.971Z,100404.09
2023-01-08T07:12:55.820Z,100404.69
2023-01-08T07:15:23.662Z,100400.03
2023-01-08T07:17:52.901Z,100401.72
2023-01-08T07:20:20.785Z,100402.91
2023-01-08T07:22:48.647Z,100405.38
2023-01-08T07:25:18.082Z,100402.22
2023-01-08T07:27:46.141Z,100406.31
2023-01-08T07:30:28.842Z,100401.06
2023-01-08T07:33:00.203Z,100413.16
2023-01-08T07:35:28.315Z,100419.22
2023-01-08T07:37:56.802Z,100422.16
2023-01-08T07:40:26.147Z,100424.28
2023-01-08T07:43:00.568Z,100427.84
2023-01-08T07:45:29.020Z,100429.97
2023-01-08T07:47:58.050Z,100427.97
2023-01-08T07:50:26.261Z,100429.38
2023-01-08T07:52:54.178Z,100429.88
2023-01-08T07:55:22.049Z,100425.25
2023-01-08T07:57:51.341Z,100428.44
2023-01-08T08:00:19.880Z,100423.97
2023-01-08T08:02:47.807Z,100420.41
2023-01-08T08:05:17.770Z,100421.22
2023-01-08T08:07:45.696Z,100422.13
2023-01-08T08:10:13.653Z,100409.81
2023-01-08T08:12:41.535Z,100405.91
2023-01-08T08:15:11.770Z,100403.91
2023-01-08T08:17:39.645Z,100410.78
2023-01-08T08:20:08.543Z,100416.75
2023-01-08T08:22:36.411Z,100425.75
2023-01-08T08:25:04.499Z,100416.34
2023-01-08T08:27:32.356Z,100418.97
2023-01-08T08:30:00.215Z,100413.50
2023-01-08T08:32:29.480Z,100404.59
2023-01-08T08:34:57.739Z,100400.31
2023-01-08T08:37:25.641Z,100397.59
2023-01-08T08:39:53.714Z,100388.41
2023-01-08T08:42:21.649Z,100375.81
2023-01-08T08:44:49.474Z,100389.41
2023-01-08T08:47:17.312Z,100382.47
2023-01-08T08:49:46.611Z,100390.78
2023-01-08T08:52:14.468Z,100391.63
2023-01-08T08:54:42.379Z,100388.91
2023-01-08T08:57:10.741Z,100393.75
2023-01-08T08:59:38.666Z,100390.09
2023-01-08T09:02:07.126Z,100395.41
2023-01-08T09:04:35.640Z,100389.75
2023-01-08T09:07:04.891Z,100376.31
2023-01-08T09:09:32.817Z,100369.22
2023-01-08T09:12:00.870Z,100361.63
2023-01-08T09:14:29.251Z,100352.63
2023-01-08T09:16:57.162Z,100343.69
2023-01-08T09:19:25.082Z,100334.56
2023-01-08T09:21:53.053Z,100333.94
2023-01-08T09:24:22.266Z,100345.19
2023-01-08T09:26:50.104Z,100351.25
2023-01-08T09:29:17.995Z,100347.84
2023-01-08T09:31:46.704Z,100360.47
2023-01-08T09:34:14.591Z,100364.72
2023-01-08T09:36:42.462Z,100379.41
2023-01-08T09:39:10.456Z,100379.00
2023-01-08T09:41:46.260Z,100374.38
2023-01-08T09:44:18.075Z,100374.06
2023-01-08T09:46:47.918Z,100377.03
2023-01-08T09:49:22.419Z,100387.94
2023-01-08T09:51:50.626Z,100391.53
2023-01-08T09:54:18.685Z,100392.38
2023-01-08T09:56:49.077Z,100391.22
2023-01-08T09:59:19.322Z,100399.06
2023-01-08T10:01:48.738Z,100398.34
2023-01-08T10:04:19.262Z,100394.63
2023-01-08T10:06:52.975Z,100383.88
2023-01-08T10:09:25.090Z,100370.31
2023-01-08T10:11:56.438Z,100365.09
2023-01-08T10:14:28.084Z,100373.53
2023-01-08T10:16:59.936Z,100371.06
2023-01-08T10:19:27.784Z,100368.59
2023-01-08T10:21:55.842Z,100359.91
2023-01-08T10:24:34.392Z,100347.66
2023-01-08T10:27:14.020Z,100358.72
2023-01-08T10:29:42.852Z,100357.91
2023-01-08T10:32:15.858Z,100361.00
2023-01-08T10:34:50.270Z,100358.63
2023-01-08T10:37:25.228Z,100351.84
2023-01-08T10:39:55.114Z,100360.59
2023-01-08T10:42:25.307Z,100350.75
2023-01-08T10:44:58.290Z,100350.09
2023-01-08T10:47:28.068Z,100344.56
2023-01-08T10:49:56.782Z,100336.94
2023-01-08T10:52:27.588Z,100351.72
2023-01-08T10:54:55.869Z,100348.38
2023-01-08T10:57:27.814Z,100339.69
2023-01-08T10:59:56.680Z,100342.69
2023-01-08T11:02:38.131Z,100340.25
2023-01-08T11:05:10.318Z,100340.13
2023-01-08T11:07:40.265Z,100328.69
2023-01-08T11:10:22.782Z,100331.53
2023-01-08T11:12:55.641Z,100320.16
2023-01-08T11:15:32.867Z,100304.91
2023-01-08T11:18:22.644Z,100319.50
2023-01-08T11:20:51.345Z,100310.19
2023-01-08T11:23:22.675Z,100304.25
2023-01-08T11:25:57.372Z,100301.84
2023-01-08T11:28:34.302Z,100291.28
2023-01-08T11:31:14.962Z,100285.84
2023-01-08T11:33:44.118Z,100273.53
2023-01-08T11:36:19.683Z,100279.38
2023-01-08T11:38:47.938Z,100283.09
2023-01-08T11:41:31.204Z,100266.84
2023-01-08T11:44:15.095Z,100281.25
2023-01-08T11:47:04.125Z,100293.25
2023-01-08T11:49:48.366Z,100287.03
2023-01-08T11:52:32.021Z,100278.94
2023-01-08T11:55:06.492Z,100264.03
2023-01-08T11:57:44.667Z,100266.56
2023-01-08T12:00:33.338Z,100260.75
2023-01-08T12:03:04.332Z,100269.34
2023-01-08T12:05:38.636Z,100255.00
2023-01-08T12:08:08.556Z,100249.09
2023-01-08T12:10:57.368Z,100251.91
2023-01-08T12:13:51.211Z,100238.13
2023-01-08T12:16:26.611Z,100236.44
2023-01-08T12:19:11.561Z,100236.41
2023-01-08T12:21:51.332Z,100245.31
2023-01-08T12:24:37.268Z,100238.69
2023-01-08T12:27:13.561Z,100237.78
2023-01-08T12:30:06.883Z,100223.72
2023-01-08T12:32:43.214Z,100229.50
2023-01-08T12:35:15.255Z,100221.78
2023-01-08T12:37:51.864Z,100215.56
2023-01-08T12:40:24.190Z,100237.84
2023-01-08T12:43:00.491Z,100236.16
2023-01-08T12:45:31.761Z,100231.38
2023-01-08T12:48:07.433Z,100228.56
2023-01-08T12:50:57.855Z,100225.44
2023-01-08T12:53:37.668Z,100227.78
2023-01-08T12:56:12.533Z,100220.34
2023-01-08T12:58:54.887Z,100217.97
2023-01-08T13:01:37.762Z,100219.94
2023-01-08T13:04:10.326Z,100222.03
2023-01-08T13:06:38.810Z,100219.22
2023-01-08T13:09:06.758Z,100210.47
2023-01-08T13:11:38.565Z,100208.66
2023-01-08T13:14:09.047Z,100214.28
2023-01-08T13:16:40.105Z,100215.13
2023-01-08T13:19:24.790Z,100218.06
2023-01-08T13:21:55.493Z,100209.38
2023-01-08T13:24:32.029Z,100217.81
2023-01-08T13:27:12.425Z,100199.69
2023-01-08T13:29:42.700Z,100209.34
2023-01-08T13:32:26.245Z,100201.72
2023-01-08T13:35:21.640Z,100187.94
2023-01-08T13:37:51.437Z,100193.81
2023-01-08T13:40:37.631Z,100194.66
2023-01-08T13:43:11.848Z,100199.19
2023-01-08T13:45:40.488Z,100193.09
2023-01-08T13:48:22.462Z,100188.19
2023-01-08T13:50:52.530Z,100191.31
2023-01-08T13:53:21.070Z,100187.34
2023-01-08T13:55:56.966Z,100185.66
2023-01-08T13:58:30.927Z,100187.22
2023-01-08T14:01:01.215Z,100187.13
2023-01-08T14:03:30.909Z,100179.06
2023-01-08T14:06:09.115Z,100179.00
2023-01-08T14:08:38.646Z,100179.13
2023-01-08T14:11:06.751Z,100174.16
2023-01-08T14:13:35.738Z,100165.94
2023-01-08T14:16:06.875Z,100178.38
2023-01-08T14:18:35.417Z,100181.44
2023-01-08T14:21:03.933Z,100173.16
2023-01-08T14:23:43.252Z,100173.03
2023-01-08T14:26:21.375Z,100174.84
2023-01-08T14:28:52.382Z,100174.31
2023-01-08T14:31:28.856Z,100175.44
2023-01-08T14:34:00.260Z,100171.47
2023-01-08T14:36:28.991Z,100174.47
2023-01-08T14:38:58.520Z,100168.72
2023-01-08T14:41:54.497Z,100163.06
2023-01-08T14:44:36.708Z,100166.09
2023-01-08T14:47:06.250Z,100172.00
2023-01-08T14:49:43.423Z,100170.91
2023-01-08T14:52:13.448Z,100172.88
2023-01-08T14:54:48.394Z,100164.13
2023-01-08T14:57:18.148Z,100164.53
2023-01-08T14:59:57.723Z,100162.19
2023-01-08T15:02:35.053Z,100156.00
2023-01-08T15:05:14.137Z,100152.09
2023-01-08T15:07:56.653Z,100157.31
2023-01-08T15:10:40.088Z,100164.75
2023-01-08T15:13:21.961Z,100156.72
2023-01-08T15:15:57.470Z,100157.72
2023-01-08T15:18:26.496Z,100161.69
2023-01-08T15:20:56.194Z,100163.75
2023-01-08T15:23:36.009Z,100170.81
2023-01-08T15:26:05.620Z,100167.44
2023-01-08T15:28:34.177Z,100166.94
2023-01-08T15:31:02.195Z,100161.25
2023-01-08T15:33:30.366Z,100167.09
2023-01-08T15:35:58.489Z,100171.88
2023-01-08T15:38:26.348Z,100160.16
2023-01-08T15:40:56.107Z,100164.59
2023-01-08T15:43:24.560Z,100162.34
2023-01-08T15:45:52.567Z,100165.81
2023-01-08T15:48:20.847Z,100159.38
2023-01-08T15:50:48.950Z,100165.84
2023-01-08T15:53:23.262Z,100163.19
2023-01-08T15:55:52.169Z,100163.50
2023-01-08T15:58:23.431Z,100173.72
2023-01-08T16:00:56.036Z,100171.34
2023-01-08T16:03:25.529Z,100163.75
2023-01-08T16:05:53.403Z,100160.94
2023-01-08T16:08:21.333Z,100169.75
2023-01-08T16:10:52.867Z,100168.63
2023-01-08T16:13:21.677Z,100156.19
2023-01-08T16:15:49.624Z,100171.97
2023-01-08T16:18:18.991Z,100172.78
2023-01-08T16:20:46.862Z,100172.44
2023-01-08T16:23:14.790Z,100159.34
2023-01-08T16:25:42.683Z,100168.06
2023-01-08T16:28:10.555Z,100153.66
2023-01-08T16:30:41.370Z,100157.38
2023-01-08T16:33:09.277Z,100149.06
2023-01-08T16:35:38.521Z,100147.22
2023-01-08T16:38:06.431Z,100147.31
2023-01-08T16:40:34.321Z,100145.34
2023-01-08T16:43:03.546Z,100142.47
2023-01-08T16:45:31.633Z,100141.19
2023-01-08T16:47:59.532Z,100146.97
2023-01-08T16:50:27.408Z,100145.88
2023-01-08T16:52:56.655Z,100136.53
2023-01-08T16:55:24.508Z,100130.66
2023-01-08T16:57:54.564Z,100133.47
2023-01-08T17:00:23.555Z,100122.16
2023-01-08T17:02:51.433Z,100120.81
2023-01-08T17:05:19.327Z,100120.47
2023-01-08T17:07:47.210Z,100121.91
2023-01-08T17:10:17.547Z,100120.63
2023-01-08T17:12:45.420Z,100109.78
2023-01-08T17:15:13.331Z,100116.19
2023-01-08T17:17:41.742Z,100113.28
2023-01-08T17:20:11.437Z,100110.50
2023-01-08T17:22:39.317Z,100105.50
2023-01-08T17:25:07.962Z,100108.13
2023-01-08T17:27:37.585Z,100101.50
2023-01-08T17:30:06.463Z,100099.41
2023-01-08T17:32:34.340Z,100091.63
2023-01-08T17:35:02.481Z,100100.38
2023-01-08T17:37:30.868Z,100112.13
2023-01-08T17:39:59.878Z,100106.66
2023-01-08T17:42:28.305Z,100094.06
2023-01-08T17:45:01.211Z,100097.84
2023-01-08T17:47:29.212Z,100094.22
2023-01-08T17:49:58.036Z,100092.81
2023-01-08T17:52:27.274Z,100075.13
2023-01-08T17:54:55.352Z,100088.59
2023-01-08T17:57:23.735Z,100076.66
2023-01-08T17:59:51.572Z,100084.34
2023-01-08T18:02:20.915Z,100090.84
2023-01-08T18:04:51.683Z,100081.38
2023-01-08T18:07:19.712Z,100079.00
2023-01-08T18:09:49.295Z,100080.97
2023-01-08T18:12:17.291Z,100078.16
2023-01-08T18:14:45.448Z,100077.75
2023-01-08T18:17:13.327Z,100066.81
2023-01-08T18:19:43.183Z,100067.72
2023-01-08T18:22:11.094Z,100071.13
2023-01-08T18:24:39.047Z,100074.22
2023-01-08T18:27:10.703Z,100075.59
2023-01-08T18:29:38.606Z,100066.09
2023-01-08T18:32:08.610Z,100074.50
2023-01-08T18:34:36.596Z,100074.03
2023-01-08T18:37:06.065Z,100073.53
2023-01-08T18:39:33.917Z,100069.41
2023-01-08T18:42:19.431Z,100065.88
2023-01-08T18:44:48.294Z,100058.59
2023-01-08T18:47:16.161Z,100049.41
2023-01-08T18:49:44.027Z,100053.81
2023-01-08T18:52:14.139Z,100056.38
2023-01-08T18:54:42.207Z,100052.41
2023-01-08T18:57:10.088Z,100051.47
2023-01-08T18:59:38.194Z,100051.19
2023-01-08T19:02:06.404Z,100045.63
2023-01-08T19:04:34.446Z,100046.50
2023-01-08T19:07:02.295Z,100045.66
2023-01-08T19:09:32.075Z,100048.69
2023-01-08T19:12:00.001Z,100043.44
2023-01-08T19:14:27.905Z,100042.13
2023-01-08T19:16:56.468Z,100036.78
2023-01-08T19:19:24.551Z,100035.47
2023-01-08T19:21:52.424Z,100046.78
2023-01-08T19:24:23.795Z,100033.91
2023-01-08T19:26:53.102Z,100035.81
2023-01-08T19:29:21.094Z,100043.84
2023-01-08T19:31:49.026Z,100046.22
2023-01-08T19:34:17.073Z,100030.78
2023-01-08T19:36:48.056Z,100037.28
2023-01-08T19:39:18.183Z,100040.59
2023-01-08T19:42:05.620Z,100041.34
2023-01-08T19:44:35.182Z,100038.41
2023-01-08T19:47:03.176Z,100039.78
2023-01-08T19:49:30.980Z,100031.38
2023-01-08T19:51:58.882Z,100036.66
2023-01-08T19:54:27.414Z,100046.31
2023-01-08T19:56:55.988Z,100035.69
2023-01-08T19:59:27.131Z,100028.63
2023-01-08T20:01:58.142Z,100024.44
2023-01-08T20:04:26.825Z,100022.59
2023-01-08T20:06:54.808Z,100016.44
2023-01-08T20:09:22.795Z,100015.28
2023-01-08T20:11:50.841Z,100012.59
2023-01-08T20:14:20.824Z,100000.50
2023-01-08T20:16:49.077Z,100006.66
2023-01-08T20:19:18.281Z,100006.41
2023-01-08T20:21:46.490Z,100006.47
2023-01-08T20:24:15.170Z,100003.97
2023-01-08T20:26:45.111Z,100008.03
2023-01-08T20:29:13.884Z,99989.59
2023-01-08T20:31:42.453Z,99993.97
2023-01-08T20:34:15.527Z,99986.31
2023-01-08T20:36:46.418Z,99979.84
2023-01-08T20:39:16.571Z,99987.19
2023-01-08T20:41:50.352Z,99981.34
2023-01-08T20:44:31.552Z,99984.88
2023-01-08T20:46:59.523Z,99987.38
2023-01-08T20:49:27.675Z,99977.03
2023-01-08T20:51:59.631Z,99980.91
2023-01-08T20:54:29.277Z,99977.94
2023-01-08T20:56:58.185Z,99967.41
2023-01-08T20:59:26.724Z,99976.81
2023-01-08T21:01:54.721Z,99978.56
2023-01-08T21:04:22.982Z,99971.00
2023-01-08T21:06:50.990Z,99977.22
2023-01-08T21:09:20.249Z,99978.63
2023-01-08T21:11:48.174Z,99969.75
2023-01-08T21:14:16.012Z,99973.16
2023-01-08T21:16:43.940Z,99966.00
2023-01-08T21:19:11.925Z,99961.09
2023-01-08T21:21:41.023Z,99970.34
2023-01-08T21:24:12.016Z,99963.34
2023-01-08T21:26:41.404Z,99951.13
2023-01-08T21:29:09.833Z,99945.47
2023-01-08T21:31:39.025Z,99938.50
2023-01-08T21:34:08.549Z,99936.84
2023-01-08T21:36:36.992Z,99938.81
2023-01-08T21:39:05.251Z,99944.63
2023-01-08T21:41:50.474Z,99939.47
2023-01-08T21:44:39.144Z,99942.78
2023-01-08T21:47:08.954Z,99933.97
2023-01-08T21:49:37.147Z,99936.50
2023-01-08T21:52:23.181Z,99926.28
2023-01-08T21:54:51.802Z,99923.38
2023-01-08T21:57:19.665Z,99925.50
2023-01-08T21:59:51.152Z,99909.50
2023-01-08T22:02:21.930Z,99904.16
2023-01-08T22:04:50.223Z,99904.41
2023-01-08T22:07:18.338Z,99897.88
2023-01-08T22:09:46.194Z,99903.22
2023-01-08T22:12:14.890Z,99896.16
2023-01-08T22:14:42.766Z,99885.88
2023-01-08T22:17:12.163Z,99884.38
2023-01-08T22:19:40.748Z,99885.84
2023-01-08T22:22:10.873Z,99878.06
2023-01-08T22:24:39.555Z,99878.22
2023-01-08T22:27:08.540Z,99878.69
2023-01-08T22:29:36.729Z,99880.25
2023-01-08T22:32:04.966Z,99875.06
2023-01-08T22:34:35.091Z,99866.03
2023-01-08T22:37:03.324Z,99873.03
2023-01-08T22:39:31.393Z,99866.75
2023-01-08T22:41:59.272Z,99873.31
2023-01-08T22:44:27.162Z,99871.97
2023-01-08T22:46:55.148Z,99868.53
2023-01-08T22:49:23.062Z,99874.16
2023-01-08T22:51:52.331Z,99870.63
2023-01-08T22:54:20.380Z,99865.41
2023-01-08T22:56:48.235Z,99863.03
2023-01-08T22:59:16.107Z,99856.44
2023-01-08T23:01:44.206Z,99853.44
2023-01-08T23:04:12.181Z,99845.88
2023-01-08T23:06:40.007Z,99846.69
2023-01-08T23:09:09.264Z,99841.47
2023-01-08T23:11:37.260Z,99842.56
2023-01-08T23:14:05.152Z,99836.19
2023-01-08T23:16:33.096Z,99837.09
2023-01-08T23:19:02.104Z,99828.53
2023-01-08T23:21:30.045Z,99831.16
2023-01-08T23:23:57.920Z,99833.13
2023-01-08T23:26:29.132Z,99827.28
2023-01-08T23:28:58.890Z,99822.44
2023-01-08T23:31:28.671Z,99818.78
2023-01-08T23:33:56.679Z,99814.03
2023-01-08T23:36:25.578Z,99809.81
2023-01-08T23:38:55.561Z,99806.59
2023-01-08T23:41:33.060Z,99809.69
2023-01-08T23:44:05.775Z,99814.97
2023-01-08T23:46:33.851Z,99813.31
2023-01-08T23:49:01.997Z,99813.72
2023-01-08T23:51:30.415Z,99812.03
2023-01-08T23:53:58.310Z,99808.50
2023-01-08T23:56:26.303Z,99812.78
2023-01-08T23:58:54.782Z,99795.31
